πŸ“Š DonnΓ©es MΓ©tΓ©o - Bordeaux

Total mesures

14,419

TempΓ©rature moyenne

18.9Β°C

Temp. Min/Max

2.9Β° / 42.4Β°

HumiditΓ© moyenne

64.9%

Pression moyenne

1014.7 hPa
enregistrements
ID Date/Heure Temp (Β°C) HumiditΓ© (%) Pression (hPa) Tendance LuminositΓ© (lux) Situation
11219 11/07/2026 03:00 23.2 70.0 1,010.5 β†’ Stable 0 pluvieux-gris (approx.)
11218 11/07/2026 02:45 23.2 69.0 1,010.0 β†’ Stable 0 conditions-neutrales-ou-non-definies
11217 11/07/2026 02:15 23.3 69.0 1,010.0 β†’ Stable 0 conditions-neutrales-ou-non-definies
11216 11/07/2026 01:45 23.2 69.0 1,009.4 β†’ Stable 0 conditions-neutrales-ou-non-definies
11215 11/07/2026 01:15 25.3 49.0 1,009.3 β†’ Stable 0 confortablement-chaud (approx.)
11214 11/07/2026 00:45 25.4 49.0 1,009.7 β†’ Stable 0 confortablement-chaud (approx.)
11213 11/07/2026 00:15 26.5 46.0 1,009.7 β†’ Stable 0 confortablement-chaud (approx.)
11212 10/07/2026 23:45 26.2 48.0 1,009.2 β†’ Stable 0 confortablement-chaud (approx.)
11211 10/07/2026 23:15 27.2 45.0 1,009.2 β†’ Stable 0 confortablement-chaud (approx.)
11210 10/07/2026 22:45 27.3 48.0 1,009.3 β†’ Stable 0 confortablement-chaud (approx.)
11209 10/07/2026 22:15 23.3 73.0 1,009.3 β†’ Stable 0 pluvieux-gris (approx.)
11208 10/07/2026 21:45 23.6 66.0 1,009.4 β†’ Stable 0 conditions-neutrales-ou-non-definies
11207 10/07/2026 21:15 25.8 53.0 1,009.4 β†’ Stable 0 confortablement-chaud (approx.)
11206 10/07/2026 20:45 29.7 34.0 1,009.1 β†’ Stable 0 conditions-neutrales-ou-non-definies
11205 10/07/2026 20:15 29.5 36.0 1,009.1 β†’ Stable 0 conditions-neutrales-ou-non-definies
11204 10/07/2026 19:45 29.7 33.0 1,009.2 β†’ Stable 180 conditions-neutrales-ou-non-definies
11203 10/07/2026 19:15 30.4 52.0 1,009.2 β†’ Stable 3,420 conditions-neutrales-ou-non-definies
11202 10/07/2026 18:45 30.9 57.0 1,007.1 β†’ Stable 7,032 conditions-neutrales-ou-non-definies
11201 10/07/2026 18:15 30.9 50.0 1,007.1 β†’ Stable 10,464 conditions-neutrales-ou-non-definies
11200 10/07/2026 17:45 33.0 44.0 1,006.4 β†’ Stable 14,256 conditions-neutrales-ou-non-definies
11199 10/07/2026 17:15 35.4 38.0 1,006.4 β†’ Stable 37,872 chaleur-seche
11198 10/07/2026 16:45 36.3 34.0 1,006.4 β†’ Stable 47,316 chaleur-seche
11197 10/07/2026 16:15 36.5 35.0 1,006.4 β†’ Stable 58,236 chaleur-seche
11196 10/07/2026 15:45 36.0 37.0 1,006.4 β†’ Stable 69,168 chaleur-seche
11195 10/07/2026 15:15 36.6 34.0 1,006.4 β†’ Stable 82,680 chaleur-seche
11194 10/07/2026 14:45 37.0 33.0 1,006.7 β†’ Stable 91,392 chaleur-seche
11193 10/07/2026 14:15 37.1 30.0 1,006.7 β†’ Stable 95,832 chaleur-seche
11192 10/07/2026 13:45 36.7 32.0 1,007.2 β†’ Stable 99,816 chaleur-seche
11191 10/07/2026 13:15 38.3 19.0 1,007.4 β†’ Stable 104,820 chaleur-seche
11190 10/07/2026 12:45 37.8 21.0 1,007.8 β†’ Stable 106,764 chaleur-seche
11189 10/07/2026 12:15 37.1 24.0 1,007.8 β†’ Stable 106,200 chaleur-seche
11188 10/07/2026 11:45 36.2 27.0 1,008.2 β†’ Stable 106,764 chaleur-seche
11187 10/07/2026 11:15 35.5 28.0 1,008.2 β†’ Stable 104,724 chaleur-seche
11186 10/07/2026 10:45 34.4 33.0 1,008.7 β†’ Stable 101,580 chaleur-seche
11185 10/07/2026 10:15 33.4 41.0 1,008.7 β†’ Stable 97,128 confortablement-chaud (approx.)
11184 10/07/2026 09:45 32.0 45.0 1,008.4 β†’ Stable 90,648 confortablement-chaud (approx.)
11183 10/07/2026 09:15 30.9 50.0 1,008.4 β†’ Stable 82,596 confortablement-chaud (approx.)
11182 10/07/2026 08:45 29.5 56.0 1,008.2 β†’ Stable 74,820 confortablement-chaud (approx.)
11181 10/07/2026 08:15 28.1 63.0 1,008.2 β†’ Stable 63,420 confortablement-chaud (approx.)
11180 10/07/2026 07:45 26.9 68.0 1,008.4 β†’ Stable 54,444 confortablement-chaud (approx.)
11179 10/07/2026 07:15 25.8 73.0 1,008.4 β†’ Stable 42,504 pluvieux-gris (approx.)
11178 10/07/2026 06:45 24.8 79.0 1,008.4 β†’ Stable 33,516 pluvieux-gris (approx.)
11177 10/07/2026 06:15 23.2 85.0 1,008.4 β†’ Stable 21,024 pluvieux-gris (approx.)
11176 10/07/2026 06:00 22.6 90.0 1,008.4 β†’ Stable 16,764 pluvieux-gris (approx.)
11175 10/07/2026 05:45 22.6 91.0 1,007.7 β†’ Stable 13,524 pluvieux-gris (approx.)
11174 10/07/2026 05:15 23.7 77.0 1,007.3 β†’ Stable 5,184 pluvieux-gris (approx.)
11173 10/07/2026 04:45 23.4 77.0 1,007.4 β†’ Stable 744 pluvieux-gris (approx.)
11172 10/07/2026 04:15 23.2 79.0 1,007.4 β†’ Stable 0 pluvieux-gris (approx.)
11171 10/07/2026 03:45 23.3 80.0 1,007.7 β†’ Stable 0 pluvieux-gris (approx.)
11170 10/07/2026 03:15 23.9 74.0 1,007.7 β†’ Stable 0 pluvieux-gris (approx.)
11169 10/07/2026 03:00 24.0 73.0 1,007.7 β†’ Stable 0 pluvieux-gris (approx.)
11168 10/07/2026 02:45 24.2 73.0 1,007.2 β†’ Stable 0 pluvieux-gris (approx.)
11167 10/07/2026 02:15 26.0 50.0 1,007.2 β†’ Stable 0 confortablement-chaud (approx.)
11166 10/07/2026 01:45 26.5 51.0 1,007.4 β†’ Stable 0 confortablement-chaud (approx.)
11165 10/07/2026 01:15 27.5 45.0 1,007.4 β†’ Stable 0 confortablement-chaud (approx.)
11164 10/07/2026 00:45 27.8 44.0 1,007.3 β†’ Stable 0 confortablement-chaud (approx.)
11163 10/07/2026 00:15 28.4 44.0 1,007.3 β†’ Stable 0 confortablement-chaud (approx.)
11162 09/07/2026 23:45 28.5 45.0 1,007.3 β†’ Stable 0 confortablement-chaud (approx.)
11161 09/07/2026 23:15 28.9 45.0 1,007.3 β†’ Stable 0 confortablement-chaud (approx.)
11160 09/07/2026 22:45 29.5 42.0 1,007.6 β†’ Stable 0 conditions-neutrales-ou-non-definies
11159 09/07/2026 22:15 30.2 39.0 1,007.6 β†’ Stable 0 chaleur-seche
11158 09/07/2026 21:45 30.9 37.0 1,007.3 β†’ Stable 0 chaleur-seche
11157 09/07/2026 21:15 31.4 35.0 1,007.3 β†’ Stable 0 chaleur-seche
11156 09/07/2026 20:45 32.0 34.0 1,006.5 β†’ Stable 0 chaleur-seche
11155 09/07/2026 20:15 33.5 29.0 1,006.5 β†’ Stable 0 chaleur-seche
11154 09/07/2026 19:45 34.2 28.0 1,006.3 β†’ Stable 1,116 chaleur-seche
11153 09/07/2026 19:15 35.9 25.0 1,006.3 β†’ Stable 8,148 chaleur-seche
11152 09/07/2026 18:45 36.8 22.0 1,006.3 β†’ Stable 16,020 chaleur-seche
11151 09/07/2026 18:15 37.8 19.0 1,006.3 β†’ Stable 26,856 chaleur-seche
11150 09/07/2026 17:45 38.1 18.0 1,006.9 β†’ Stable 36,576 chaleur-seche
11149 09/07/2026 17:15 38.6 15.0 1,006.9 β†’ Stable 48,060 chaleur-seche
11148 09/07/2026 16:45 38.7 15.0 1,007.6 β†’ Stable 57,876 chaleur-seche
11147 09/07/2026 16:15 39.0 15.0 1,007.6 β†’ Stable 68,796 chaleur-seche
11146 09/07/2026 15:45 38.8 16.0 1,008.3 β†’ Stable 77,688 chaleur-seche
11145 09/07/2026 15:15 38.4 16.0 1,008.3 β†’ Stable 85,188 chaleur-seche
11144 09/07/2026 14:45 38.2 17.0 1,009.0 β†’ Stable 91,764 chaleur-seche
11143 09/07/2026 14:15 38.0 17.0 1,009.0 β†’ Stable 97,320 chaleur-seche
11142 09/07/2026 13:45 37.8 18.0 1,009.6 β†’ Stable 101,760 chaleur-seche
11141 09/07/2026 13:15 37.1 19.0 1,009.7 β†’ Stable 104,904 chaleur-seche
11140 09/07/2026 12:45 36.4 22.0 1,010.5 β†’ Stable 106,848 chaleur-seche
11139 09/07/2026 12:15 35.5 26.0 1,010.5 β†’ Stable 107,496 chaleur-seche
11138 09/07/2026 11:45 34.7 29.0 1,011.1 β†’ Stable 106,848 chaleur-seche
11137 09/07/2026 11:15 33.9 31.0 1,011.1 β†’ Stable 104,904 chaleur-seche
11136 09/07/2026 10:45 32.8 35.0 1,011.8 β†’ Stable 101,664 chaleur-seche
11135 09/07/2026 10:15 31.4 41.0 1,011.8 β†’ Stable 97,320 confortablement-chaud (approx.)
11134 09/07/2026 09:45 30.2 48.0 1,012.0 β†’ Stable 91,764 confortablement-chaud (approx.)
11133 09/07/2026 09:15 28.8 54.0 1,012.0 β†’ Stable 83,148 confortablement-chaud
11132 09/07/2026 08:45 27.4 61.0 1,012.2 β†’ Stable 75,372 confortablement-chaud
11131 09/07/2026 08:15 26.1 68.0 1,012.2 β†’ Stable 64,356 confortablement-chaud (approx.)
11130 09/07/2026 07:45 24.9 74.0 1,012.1 β†’ Stable 55,368 pluvieux-gris (approx.)
11129 09/07/2026 07:15 24.1 77.0 1,012.1 β†’ Stable 42,408 pluvieux-gris (approx.)
11128 09/07/2026 07:00 23.7 80.0 1,012.1 β†’ Stable 37,320 pluvieux-gris (approx.)
11127 09/07/2026 06:45 23.2 83.0 1,012.3 β†’ Stable 33,336 pluvieux-gris (approx.)
11126 09/07/2026 06:15 22.3 87.0 1,012.3 β†’ Stable 20,832 pluvieux-gris (approx.)
11125 09/07/2026 05:45 21.7 90.0 1,012.8 β†’ Stable 13,428 pluvieux-gris (approx.)
11124 09/07/2026 05:15 21.8 92.0 1,012.7 β†’ Stable 3,516 pluvieux-gris (approx.)
11123 09/07/2026 05:00 21.8 93.0 1,012.7 β†’ Stable 1,764 pluvieux-gris (approx.)
11122 09/07/2026 04:45 21.8 94.0 1,013.1 β†’ Stable 468 pluvieux-gris (approx.)
11121 09/07/2026 04:15 21.9 93.0 1,013.1 β†’ Stable 0 pluvieux-gris (approx.)
11120 09/07/2026 03:45 21.7 95.0 1,013.1 β†’ Stable 0 pluvieux-gris (approx.)